sensor_id;sensor_type;location;lat;lon;timestamp;pressure;altitude;pressure_sealevel;temperature;humidity
25420;BME280;13354;48.174;11.566;2022-07-29T00:01:20;95643.59;;;21.36;60.46
25420;BME280;13354;48.174;11.566;2022-07-29T00:03:46;95643.28;;;21.33;60.79
25420;BME280;13354;48.174;11.566;2022-07-29T00:06:11;95636.22;;;21.21;61.28
25420;BME280;13354;48.174;11.566;2022-07-29T00:08:36;95632.16;;;21.19;61.64
25420;BME280;13354;48.174;11.566;2022-07-29T00:11:02;95629.19;;;21.20;61.87
25420;BME280;13354;48.174;11.566;2022-07-29T00:13:27;95631.75;;;21.37;61.38
25420;BME280;13354;48.174;11.566;2022-07-29T00:15:52;95633.22;;;21.18;62.08
25420;BME280;13354;48.174;11.566;2022-07-29T00:18:18;95626.03;;;21.29;62.32
25420;BME280;13354;48.174;11.566;2022-07-29T00:20:43;95628.66;;;21.23;62.61
25420;BME280;13354;48.174;11.566;2022-07-29T00:23:09;95632.41;;;21.17;63.25
25420;BME280;13354;48.174;11.566;2022-07-29T00:25:34;95643.78;;;21.25;63.35
25420;BME280;13354;48.174;11.566;2022-07-29T00:28:00;95649.97;;;21.30;63.72
25420;BME280;13354;48.174;11.566;2022-07-29T00:30:26;95643.50;;;21.26;64.10
25420;BME280;13354;48.174;11.566;2022-07-29T00:32:51;95644.44;;;21.10;65.66
25420;BME280;13354;48.174;11.566;2022-07-29T00:35:16;95637.38;;;20.98;66.27
25420;BME280;13354;48.174;11.566;2022-07-29T00:38:00;95639.06;;;21.05;66.08
25420;BME280;13354;48.174;11.566;2022-07-29T00:40:26;95632.53;;;20.95;66.65
25420;BME280;13354;48.174;11.566;2022-07-29T00:42:51;95632.28;;;20.97;66.61
25420;BME280;13354;48.174;11.566;2022-07-29T00:45:17;95630.81;;;21.21;65.64
25420;BME280;13354;48.174;11.566;2022-07-29T00:47:42;95631.78;;;21.05;66.79
25420;BME280;13354;48.174;11.566;2022-07-29T00:50:11;95622.75;;;21.21;65.30
25420;BME280;13354;48.174;11.566;2022-07-29T00:52:38;95614.63;;;21.16;65.02
25420;BME280;13354;48.174;11.566;2022-07-29T00:55:04;95602.22;;;21.10;65.21
25420;BME280;13354;48.174;11.566;2022-07-29T00:57:30;95604.41;;;21.18;64.95
25420;BME280;13354;48.174;11.566;2022-07-29T00:59:56;95607.31;;;21.07;65.40
25420;BME280;13354;48.174;11.566;2022-07-29T01:02:21;95600.59;;;21.09;65.13
25420;BME280;13354;48.174;11.566;2022-07-29T01:04:46;95595.78;;;21.16;64.85
25420;BME280;13354;48.174;11.566;2022-07-29T01:07:12;95591.50;;;21.20;63.19
25420;BME280;13354;48.174;11.566;2022-07-29T01:09:38;95591.16;;;21.07;63.58
25420;BME280;13354;48.174;11.566;2022-07-29T01:12:04;95584.72;;;21.13;63.20
25420;BME280;13354;48.174;11.566;2022-07-29T01:14:29;95583.41;;;21.15;63.11
25420;BME280;13354;48.174;11.566;2022-07-29T01:16:58;95588.19;;;21.08;63.13
25420;BME280;13354;48.174;11.566;2022-07-29T01:21:58;95595.25;;;21.19;62.29
25420;BME280;13354;48.174;11.566;2022-07-29T01:27:02;95600.53;;;21.41;61.16
25420;BME280;13354;48.174;11.566;2022-07-29T01:29:41;95591.66;;;21.46;61.04
25420;BME280;13354;48.174;11.566;2022-07-29T01:32:10;95591.69;;;21.51;61.10
25420;BME280;13354;48.174;11.566;2022-07-29T01:34:50;95593.03;;;21.54;61.07
25420;BME280;13354;48.174;11.566;2022-07-29T01:37:18;95598.69;;;21.52;61.48
25420;BME280;13354;48.174;11.566;2022-07-29T01:39:45;95594.69;;;21.65;61.08
25420;BME280;13354;48.174;11.566;2022-07-29T01:42:20;95578.81;;;21.63;61.69
25420;BME280;13354;48.174;11.566;2022-07-29T01:44:56;95579.94;;;21.73;61.39
25420;BME280;13354;48.174;11.566;2022-07-29T01:47:23;95588.06;;;21.88;60.99
25420;BME280;13354;48.174;11.566;2022-07-29T01:49:50;95588.81;;;21.83;61.06
25420;BME280;13354;48.174;11.566;2022-07-29T01:52:20;95595.00;;;21.79;61.10
25420;BME280;13354;48.174;11.566;2022-07-29T01:54:57;95589.59;;;21.68;62.48
25420;BME280;13354;48.174;11.566;2022-07-29T01:57:27;95588.81;;;21.83;60.93
25420;BME280;13354;48.174;11.566;2022-07-29T01:59:53;95587.25;;;21.92;60.17
25420;BME280;13354;48.174;11.566;2022-07-29T02:02:19;95590.47;;;21.89;60.71
25420;BME280;13354;48.174;11.566;2022-07-29T02:04:45;95581.56;;;21.84;60.89
25420;BME280;13354;48.174;11.566;2022-07-29T02:07:13;95582.91;;;21.86;60.69
25420;BME280;13354;48.174;11.566;2022-07-29T02:09:40;95578.66;;;22.06;60.35
25420;BME280;13354;48.174;11.566;2022-07-29T02:12:07;95574.06;;;22.11;60.58
25420;BME280;13354;48.174;11.566;2022-07-29T02:14:35;95575.69;;;22.12;60.95
25420;BME280;13354;48.174;11.566;2022-07-29T02:17:04;95562.75;;;21.99;61.83
25420;BME280;13354;48.174;11.566;2022-07-29T02:19:29;95564.31;;;21.85;62.53
25420;BME280;13354;48.174;11.566;2022-07-29T02:21:59;95566.41;;;21.67;63.82
25420;BME280;13354;48.174;11.566;2022-07-29T02:24:25;95555.63;;;21.62;63.70
25420;BME280;13354;48.174;11.566;2022-07-29T02:26:53;95556.91;;;21.44;65.37
25420;BME280;13354;48.174;11.566;2022-07-29T02:29:22;95559.50;;;21.29;65.84
25420;BME280;13354;48.174;11.566;2022-07-29T02:31:48;95551.53;;;21.39;65.21
25420;BME280;13354;48.174;11.566;2022-07-29T02:34:15;95551.53;;;21.39;65.53
25420;BME280;13354;48.174;11.566;2022-07-29T02:36:42;95546.66;;;21.36;65.83
25420;BME280;13354;48.174;11.566;2022-07-29T02:39:08;95544.16;;;21.30;65.72
25420;BME280;13354;48.174;11.566;2022-07-29T02:41:42;95547.88;;;21.18;66.39
25420;BME280;13354;48.174;11.566;2022-07-29T02:44:09;95545.00;;;21.35;64.96
25420;BME280;13354;48.174;11.566;2022-07-29T02:46:35;95549.25;;;21.26;64.57
25420;BME280;13354;48.174;11.566;2022-07-29T02:49:27;95547.38;;;21.27;64.33
25420;BME280;13354;48.174;11.566;2022-07-29T02:51:53;95549.91;;;21.43;60.07
25420;BME280;13354;48.174;11.566;2022-07-29T02:54:23;95548.59;;;21.61;58.33
25420;BME280;13354;48.174;11.566;2022-07-29T02:56:51;95547.25;;;21.54;58.39
25420;BME280;13354;48.174;11.566;2022-07-29T02:59:20;95542.16;;;21.62;59.13
25420;BME280;13354;48.174;11.566;2022-07-29T03:01:46;95546.47;;;21.68;60.23
25420;BME280;13354;48.174;11.566;2022-07-29T03:04:12;95536.78;;;21.62;60.66
25420;BME280;13354;48.174;11.566;2022-07-29T03:06:39;95544.00;;;21.52;62.77
25420;BME280;13354;48.174;11.566;2022-07-29T03:09:06;95540.47;;;21.36;63.79
25420;BME280;13354;48.174;11.566;2022-07-29T03:11:31;95547.09;;;21.28;64.49
25420;BME280;13354;48.174;11.566;2022-07-29T03:13:57;95544.16;;;21.25;64.34
25420;BME280;13354;48.174;11.566;2022-07-29T03:16:23;95546.28;;;21.22;64.40
25420;BME280;13354;48.174;11.566;2022-07-29T03:18:49;95547.59;;;21.15;65.40
25420;BME280;13354;48.174;11.566;2022-07-29T03:21:15;95542.91;;;20.95;66.37
25420;BME280;13354;48.174;11.566;2022-07-29T03:23:44;95548.53;;;20.88;66.69
25420;BME280;13354;48.174;11.566;2022-07-29T03:26:12;95542.59;;;20.86;66.71
25420;BME280;13354;48.174;11.566;2022-07-29T03:28:38;95533.47;;;20.92;66.05
25420;BME280;13354;48.174;11.566;2022-07-29T03:31:03;95535.25;;;20.77;66.40
25420;BME280;13354;48.174;11.566;2022-07-29T03:33:29;95540.38;;;20.73;66.74
25420;BME280;13354;48.174;11.566;2022-07-29T03:35:55;95544.44;;;20.81;66.34
25420;BME280;13354;48.174;11.566;2022-07-29T03:38:20;95535.09;;;20.88;66.25
25420;BME280;13354;48.174;11.566;2022-07-29T03:40:53;95543.06;;;20.73;67.05
25420;BME280;13354;48.174;11.566;2022-07-29T03:43:19;95537.84;;;20.61;67.68
25420;BME280;13354;48.174;11.566;2022-07-29T03:45:47;95541.31;;;20.57;67.87
25420;BME280;13354;48.174;11.566;2022-07-29T03:48:13;95540.91;;;20.75;67.22
25420;BME280;13354;48.174;11.566;2022-07-29T03:50:39;95540.31;;;20.68;67.63
25420;BME280;13354;48.174;11.566;2022-07-29T03:53:04;95539.19;;;20.59;68.32
25420;BME280;13354;48.174;11.566;2022-07-29T03:55:32;95548.88;;;20.60;68.35
25420;BME280;13354;48.174;11.566;2022-07-29T03:58:01;95550.47;;;20.61;68.31
25420;BME280;13354;48.174;11.566;2022-07-29T04:00:27;95547.94;;;20.49;68.96
25420;BME280;13354;48.174;11.566;2022-07-29T04:02:52;95557.50;;;20.35;69.67
25420;BME280;13354;48.174;11.566;2022-07-29T04:05:18;95557.28;;;20.36;69.56
25420;BME280;13354;48.174;11.566;2022-07-29T04:07:43;95559.09;;;20.31;70.07
25420;BME280;13354;48.174;11.566;2022-07-29T04:10:09;95556.19;;;20.37;69.79
25420;BME280;13354;48.174;11.566;2022-07-29T04:12:34;95553.34;;;20.49;69.54
25420;BME280;13354;48.174;11.566;2022-07-29T04:15:00;95552.59;;;20.54;69.55
25420;BME280;13354;48.174;11.566;2022-07-29T04:17:26;95554.22;;;20.55;69.21
25420;BME280;13354;48.174;11.566;2022-07-29T04:19:51;95553.53;;;20.42;69.84
25420;BME280;13354;48.174;11.566;2022-07-29T04:22:16;95553.72;;;20.31;70.61
25420;BME280;13354;48.174;11.566;2022-07-29T04:24:42;95559.59;;;20.27;70.91
25420;BME280;13354;48.174;11.566;2022-07-29T04:27:07;95559.88;;;20.26;70.97
25420;BME280;13354;48.174;11.566;2022-07-29T04:29:32;95560.66;;;20.21;71.26
25420;BME280;13354;48.174;11.566;2022-07-29T04:31:57;95570.31;;;20.22;71.40
25420;BME280;13354;48.174;11.566;2022-07-29T04:34:23;95574.91;;;20.22;71.61
25420;BME280;13354;48.174;11.566;2022-07-29T04:36:48;95574.41;;;20.30;71.72
25420;BME280;13354;48.174;11.566;2022-07-29T04:39:13;95569.84;;;20.31;71.95
25420;BME280;13354;48.174;11.566;2022-07-29T04:41:39;95575.63;;;20.44;71.45
25420;BME280;13354;48.174;11.566;2022-07-29T04:44:05;95582.63;;;20.45;70.87
25420;BME280;13354;48.174;11.566;2022-07-29T04:46:30;95575.34;;;20.46;71.73
25420;BME280;13354;48.174;11.566;2022-07-29T04:48:55;95582.34;;;20.47;71.97
25420;BME280;13354;48.174;11.566;2022-07-29T04:51:21;95583.25;;;20.53;70.93
25420;BME280;13354;48.174;11.566;2022-07-29T04:53:46;95579.56;;;20.64;71.01
25420;BME280;13354;48.174;11.566;2022-07-29T04:56:11;95582.84;;;20.71;70.68
25420;BME280;13354;48.174;11.566;2022-07-29T04:58:36;95577.78;;;20.80;70.33
25420;BME280;13354;48.174;11.566;2022-07-29T05:01:02;95585.09;;;20.84;70.24
25420;BME280;13354;48.174;11.566;2022-07-29T05:03:28;95585.09;;;20.84;70.50
25420;BME280;13354;48.174;11.566;2022-07-29T05:05:53;95591.53;;;20.83;70.33
25420;BME280;13354;48.174;11.566;2022-07-29T05:08:18;95593.19;;;20.84;70.08
25420;BME280;13354;48.174;11.566;2022-07-29T05:10:44;95591.88;;;20.92;70.52
25420;BME280;13354;48.174;11.566;2022-07-29T05:13:12;95593.50;;;20.93;69.67
25420;BME280;13354;48.174;11.566;2022-07-29T05:15:37;95588.91;;;20.88;69.78
25420;BME280;13354;48.174;11.566;2022-07-29T05:18:02;95596.56;;;21.07;69.00
25420;BME280;13354;48.174;11.566;2022-07-29T05:20:28;95592.50;;;21.04;69.97
25420;BME280;13354;48.174;11.566;2022-07-29T05:22:57;95592.75;;;21.03;70.62
25420;BME280;13354;48.174;11.566;2022-07-29T05:25:23;95593.06;;;21.06;70.31
25420;BME280;13354;48.174;11.566;2022-07-29T05:27:48;95588.72;;;21.05;70.28
25420;BME280;13354;48.174;11.566;2022-07-29T05:30:13;95595.41;;;20.97;70.58
25420;BME280;13354;48.174;11.566;2022-07-29T05:32:39;95596.78;;;21.00;69.83
25420;BME280;13354;48.174;11.566;2022-07-29T05:35:04;95595.97;;;21.05;69.81
25420;BME280;13354;48.174;11.566;2022-07-29T05:37:30;95603.25;;;21.04;70.18
25420;BME280;13354;48.174;11.566;2022-07-29T05:39:56;95614.03;;;21.04;70.76
25420;BME280;13354;48.174;11.566;2022-07-29T05:42:21;95606.47;;;21.01;69.68
25420;BME280;13354;48.174;11.566;2022-07-29T05:44:46;95602.53;;;21.19;68.48
25420;BME280;13354;48.174;11.566;2022-07-29T05:47:12;95613.00;;;21.10;68.43
25420;BME280;13354;48.174;11.566;2022-07-29T05:49:37;95610.00;;;21.07;68.54
25420;BME280;13354;48.174;11.566;2022-07-29T05:52:02;95615.44;;;21.17;68.40
25420;BME280;13354;48.174;11.566;2022-07-29T05:54:28;95617.66;;;21.30;67.38
25420;BME280;13354;48.174;11.566;2022-07-29T05:56:53;95609.63;;;21.35;67.28
25420;BME280;13354;48.174;11.566;2022-07-29T05:59:18;95614.56;;;21.49;65.33
25420;BME280;13354;48.174;11.566;2022-07-29T06:01:43;95609.53;;;21.62;62.92
25420;BME280;13354;48.174;11.566;2022-07-29T06:04:08;95608.72;;;21.72;62.96
25420;BME280;13354;48.174;11.566;2022-07-29T06:06:34;95616.81;;;21.72;63.40
25420;BME280;13354;48.174;11.566;2022-07-29T06:08:59;95621.44;;;21.77;62.60
25420;BME280;13354;48.174;11.566;2022-07-29T06:11:24;95621.44;;;21.77;61.70
25420;BME280;13354;48.174;11.566;2022-07-29T06:13:50;95624.91;;;21.72;61.60
25420;BME280;13354;48.174;11.566;2022-07-29T06:16:15;95619.03;;;21.85;61.20
25420;BME280;13354;48.174;11.566;2022-07-29T06:18:40;95624.13;;;21.82;61.83
25420;BME280;13354;48.174;11.566;2022-07-29T06:21:09;95616.06;;;21.82;61.63
25420;BME280;13354;48.174;11.566;2022-07-29T06:23:35;95618.50;;;21.88;61.88
25420;BME280;13354;48.174;11.566;2022-07-29T06:26:00;95611.78;;;22.01;61.35
25420;BME280;13354;48.174;11.566;2022-07-29T06:28:25;95622.91;;;22.15;61.50
25420;BME280;13354;48.174;11.566;2022-07-29T06:30:51;95624.81;;;22.35;60.45
25420;BME280;13354;48.174;11.566;2022-07-29T06:33:17;95622.69;;;22.42;59.56
25420;BME280;13354;48.174;11.566;2022-07-29T06:35:42;95621.59;;;22.38;59.74
25420;BME280;13354;48.174;11.566;2022-07-29T06:38:08;95625.66;;;22.35;60.65
25420;BME280;13354;48.174;11.566;2022-07-29T06:40:33;95620.53;;;22.49;59.59
25420;BME280;13354;48.174;11.566;2022-07-29T06:43:17;95625.13;;;22.43;60.10
25420;BME280;13354;48.174;11.566;2022-07-29T06:45:42;95629.44;;;22.45;59.56
25420;BME280;13354;48.174;11.566;2022-07-29T06:48:09;95624.31;;;22.63;58.42
25420;BME280;13354;48.174;11.566;2022-07-29T06:50:34;95625.94;;;22.75;58.50
25420;BME280;13354;48.174;11.566;2022-07-29T06:52:59;95624.34;;;22.99;58.06
25420;BME280;13354;48.174;11.566;2022-07-29T06:55:24;95621.66;;;23.09;58.02
25420;BME280;13354;48.174;11.566;2022-07-29T06:57:50;95623.44;;;23.45;57.22
25420;BME280;13354;48.174;11.566;2022-07-29T07:00:15;95628.53;;;23.61;54.37
25420;BME280;13354;48.174;11.566;2022-07-29T07:02:40;95630.50;;;24.10;52.61
25420;BME280;13354;48.174;11.566;2022-07-29T07:05:06;95625.16;;;24.89;51.57
25420;BME280;13354;48.174;11.566;2022-07-29T07:07:31;95633.09;;;25.63;48.88
25420;BME280;13354;48.174;11.566;2022-07-29T07:09:56;95633.88;;;26.54;47.19
25420;BME280;13354;48.174;11.566;2022-07-29T07:12:21;95637.84;;;27.13;44.08
25420;BME280;13354;48.174;11.566;2022-07-29T07:14:47;95637.88;;;27.27;44.09
25420;BME280;13354;48.174;11.566;2022-07-29T07:17:13;95638.88;;;27.91;42.92
25420;BME280;13354;48.174;11.566;2022-07-29T07:19:38;95634.97;;;28.84;41.50
25420;BME280;13354;48.174;11.566;2022-07-29T07:22:03;95630.66;;;29.68;39.99
25420;BME280;13354;48.174;11.566;2022-07-29T07:24:28;95626.13;;;30.03;39.59
25420;BME280;13354;48.174;11.566;2022-07-29T07:26:54;95631.25;;;30.79;37.00
25420;BME280;13354;48.174;11.566;2022-07-29T07:29:20;95620.09;;;31.27;35.82
25420;BME280;13354;48.174;11.566;2022-07-29T07:31:45;95618.78;;;31.81;35.06
25420;BME280;13354;48.174;11.566;2022-07-29T07:34:10;95621.13;;;31.99;35.02
25420;BME280;13354;48.174;11.566;2022-07-29T07:36:35;95619.66;;;32.40;34.56
25420;BME280;13354;48.174;11.566;2022-07-29T07:39:01;95620.91;;;32.64;33.90
25420;BME280;13354;48.174;11.566;2022-07-29T07:41:27;95623.31;;;32.65;33.31
25420;BME280;13354;48.174;11.566;2022-07-29T07:43:52;95623.25;;;32.74;33.30
25420;BME280;13354;48.174;11.566;2022-07-29T07:46:17;95619.50;;;32.58;33.52
25420;BME280;13354;48.174;11.566;2022-07-29T07:48:42;95623.16;;;32.62;32.83
25420;BME280;13354;48.174;11.566;2022-07-29T07:51:08;95628.00;;;32.35;32.81
25420;BME280;13354;48.174;11.566;2022-07-29T07:53:33;95625.47;;;31.62;33.98
25420;BME280;13354;48.174;11.566;2022-07-29T07:55:58;95629.28;;;31.70;34.37
25420;BME280;13354;48.174;11.566;2022-07-29T07:58:24;95624.28;;;31.34;34.23
25420;BME280;13354;48.174;11.566;2022-07-29T08:00:49;95618.94;;;31.46;34.09
25420;BME280;13354;48.174;11.566;2022-07-29T08:03:14;95619.28;;;31.18;34.83
25420;BME280;13354;48.174;11.566;2022-07-29T08:05:40;95614.66;;;31.19;35.06
25420;BME280;13354;48.174;11.566;2022-07-29T08:08:05;95622.66;;;31.33;34.64
25420;BME280;13354;48.174;11.566;2022-07-29T08:10:30;95626.09;;;30.95;35.15
25420;BME280;13354;48.174;11.566;2022-07-29T08:13:14;95628.44;;;31.40;34.51
25420;BME280;13354;48.174;11.566;2022-07-29T08:15:40;95628.78;;;31.21;34.74
25420;BME280;13354;48.174;11.566;2022-07-29T08:18:06;95633.13;;;30.44;36.27
25420;BME280;13354;48.174;11.566;2022-07-29T08:20:31;95636.66;;;30.44;36.22
25420;BME280;13354;48.174;11.566;2022-07-29T08:22:58;95635.88;;;30.44;36.94
25420;BME280;13354;48.174;11.566;2022-07-29T08:25:23;95628.88;;;30.12;36.00
25420;BME280;13354;48.174;11.566;2022-07-29T08:27:49;95630.09;;;29.88;36.62
25420;BME280;13354;48.174;11.566;2022-07-29T08:30:14;95633.22;;;29.64;37.44
25420;BME280;13354;48.174;11.566;2022-07-29T08:32:39;95621.41;;;29.46;37.22
25420;BME280;13354;48.174;11.566;2022-07-29T08:35:05;95624.03;;;29.29;38.60
25420;BME280;13354;48.174;11.566;2022-07-29T08:37:30;95624.88;;;29.38;38.23
25420;BME280;13354;48.174;11.566;2022-07-29T08:39:55;95631.78;;;29.35;38.50
25420;BME280;13354;48.174;11.566;2022-07-29T08:42:21;95631.78;;;29.35;38.50
25420;BME280;13354;48.174;11.566;2022-07-29T08:44:46;95633.88;;;28.94;38.98
25420;BME280;13354;48.174;11.566;2022-07-29T08:47:13;95642.00;;;28.85;39.33
25420;BME280;13354;48.174;11.566;2022-07-29T08:49:39;95632.78;;;28.72;39.38
25420;BME280;13354;48.174;11.566;2022-07-29T08:52:04;95633.72;;;28.17;40.55
25420;BME280;13354;48.174;11.566;2022-07-29T08:54:29;95631.69;;;28.09;41.04
25420;BME280;13354;48.174;11.566;2022-07-29T08:56:55;95622.03;;;28.03;41.64
25420;BME280;13354;48.174;11.566;2022-07-29T08:59:21;95623.75;;;27.99;41.56
25420;BME280;13354;48.174;11.566;2022-07-29T09:01:47;95633.59;;;28.09;41.70
25420;BME280;13354;48.174;11.566;2022-07-29T09:04:13;95633.31;;;28.10;41.88
25420;BME280;13354;48.174;11.566;2022-07-29T09:06:44;95642.88;;;27.94;41.68
25420;BME280;13354;48.174;11.566;2022-07-29T09:09:09;95652.03;;;27.70;42.18
25420;BME280;13354;48.174;11.566;2022-07-29T09:11:35;95635.53;;;27.94;43.21
25420;BME280;13354;48.174;11.566;2022-07-29T09:14:01;95648.84;;;27.96;43.30
25420;BME280;13354;48.174;11.566;2022-07-29T09:16:26;95648.84;;;27.82;42.29
25420;BME280;13354;48.174;11.566;2022-07-29T09:21:48;95646.72;;;27.93;42.86
25420;BME280;13354;48.174;11.566;2022-07-29T09:24:23;95645.94;;;27.92;42.37
25420;BME280;13354;48.174;11.566;2022-07-29T09:26:48;95643.69;;;27.94;42.89
25420;BME280;13354;48.174;11.566;2022-07-29T09:29:17;95643.38;;;27.68;43.62
25420;BME280;13354;48.174;11.566;2022-07-29T09:31:43;95632.00;;;27.66;43.48
25420;BME280;13354;48.174;11.566;2022-07-29T09:34:09;95638.84;;;27.64;43.12
25420;BME280;13354;48.174;11.566;2022-07-29T09:36:42;95642.34;;;27.37;44.00
25420;BME280;13354;48.174;11.566;2022-07-29T09:39:07;95634.88;;;27.42;44.08
25420;BME280;13354;48.174;11.566;2022-07-29T09:41:52;95643.53;;;27.31;44.79
25420;BME280;13354;48.174;11.566;2022-07-29T09:44:21;95640.66;;;27.55;44.21
25420;BME280;13354;48.174;11.566;2022-07-29T09:46:59;95631.66;;;27.54;44.46
25420;BME280;13354;48.174;11.566;2022-07-29T09:49:34;95632.88;;;27.48;43.67
25420;BME280;13354;48.174;11.566;2022-07-29T09:52:07;95638.38;;;27.15;44.11
25420;BME280;13354;48.174;11.566;2022-07-29T09:54:34;95635.72;;;26.78;44.72
25420;BME280;13354;48.174;11.566;2022-07-29T09:57:06;95634.75;;;26.49;45.25
25420;BME280;13354;48.174;11.566;2022-07-29T09:59:31;95636.41;;;26.45;45.87
25420;BME280;13354;48.174;11.566;2022-07-29T10:01:57;95640.72;;;26.52;45.96
25420;BME280;13354;48.174;11.566;2022-07-29T10:04:22;95632.84;;;26.69;46.09
25420;BME280;13354;48.174;11.566;2022-07-29T10:06:57;95633.47;;;26.80;46.43
25420;BME280;13354;48.174;11.566;2022-07-29T10:09:23;95646.81;;;26.62;46.07
25420;BME280;13354;48.174;11.566;2022-07-29T10:12:05;95642.97;;;26.63;45.75
25420;BME280;13354;48.174;11.566;2022-07-29T10:14:31;95632.34;;;26.67;45.77
25420;BME280;13354;48.174;11.566;2022-07-29T10:16:59;95633.59;;;26.56;46.29
25420;BME280;13354;48.174;11.566;2022-07-29T10:19:25;95621.16;;;26.68;46.39
25420;BME280;13354;48.174;11.566;2022-07-29T10:21:50;95630.28;;;26.78;46.33
25420;BME280;13354;48.174;11.566;2022-07-29T10:24:15;95630.41;;;27.19;45.96
25420;BME280;13354;48.174;11.566;2022-07-29T10:26:41;95635.69;;;27.29;44.73
25420;BME280;13354;48.174;11.566;2022-07-29T10:29:07;95633.69;;;26.83;46.01
25420;BME280;13354;48.174;11.566;2022-07-29T10:36:54;95625.88;;;27.75;44.05
25420;BME280;13354;48.174;11.566;2022-07-29T10:42:06;95625.56;;;28.04;42.25
25420;BME280;13354;48.174;11.566;2022-07-29T10:44:35;95622.72;;;28.09;42.47
25420;BME280;13354;48.174;11.566;2022-07-29T10:47:04;95632.19;;;27.70;43.59
25420;BME280;13354;48.174;11.566;2022-07-29T10:49:29;95625.34;;;28.14;42.75
25420;BME280;13354;48.174;11.566;2022-07-29T10:52:08;95627.81;;;28.52;42.20
25420;BME280;13354;48.174;11.566;2022-07-29T10:57:32;95611.41;;;29.42;40.49
25420;BME280;13354;48.174;11.566;2022-07-29T11:05:02;95607.94;;;29.81;39.55
25420;BME280;13354;48.174;11.566;2022-07-29T11:07:28;95611.09;;;29.66;40.40
25420;BME280;13354;48.174;11.566;2022-07-29T11:15:16;95596.53;;;29.79;38.42
25420;BME280;13354;48.174;11.566;2022-07-29T11:20:32;95601.06;;;30.01;36.20
25420;BME280;13354;48.174;11.566;2022-07-29T11:22:57;95605.97;;;30.21;36.63
25420;BME280;13354;48.174;11.566;2022-07-29T11:25:23;95601.31;;;30.39;35.97
25420;BME280;13354;48.174;11.566;2022-07-29T11:27:48;95604.84;;;30.22;35.78
25420;BME280;13354;48.174;11.566;2022-07-29T11:30:13;95597.69;;;30.04;34.93
25420;BME280;13354;48.174;11.566;2022-07-29T11:32:40;95599.44;;;29.51;34.27
25420;BME280;13354;48.174;11.566;2022-07-29T11:35:13;95596.69;;;29.11;34.38
25420;BME280;13354;48.174;11.566;2022-07-29T11:37:38;95603.44;;;29.14;34.31
25420;BME280;13354;48.174;11.566;2022-07-29T11:45:03;95585.09;;;29.68;36.01
25420;BME280;13354;48.174;11.566;2022-07-29T11:47:32;95594.00;;;30.00;35.74
25420;BME280;13354;48.174;11.566;2022-07-29T11:50:00;95586.09;;;29.81;34.68
25420;BME280;13354;48.174;11.566;2022-07-29T11:52:32;95573.72;;;29.75;35.32
25420;BME280;13354;48.174;11.566;2022-07-29T11:54:58;95579.06;;;29.49;35.34
25420;BME280;13354;48.174;11.566;2022-07-29T11:57:26;95586.06;;;29.32;33.80
25420;BME280;13354;48.174;11.566;2022-07-29T11:59:51;95581.53;;;29.28;34.46
25420;BME280;13354;48.174;11.566;2022-07-29T12:02:16;95579.88;;;28.96;35.38
25420;BME280;13354;48.174;11.566;2022-07-29T12:04:54;95581.41;;;29.02;35.78
25420;BME280;13354;48.174;11.566;2022-07-29T12:07:33;95576.94;;;28.83;36.70
25420;BME280;13354;48.174;11.566;2022-07-29T12:09:59;95572.84;;;28.95;36.30
25420;BME280;13354;48.174;11.566;2022-07-29T12:12:25;95579.09;;;28.95;36.43
25420;BME280;13354;48.174;11.566;2022-07-29T12:14:50;95567.81;;;28.88;36.78
25420;BME280;13354;48.174;11.566;2022-07-29T12:17:26;95573.47;;;28.92;37.01
25420;BME280;13354;48.174;11.566;2022-07-29T12:19:55;95573.47;;;28.69;38.04
25420;BME280;13354;48.174;11.566;2022-07-29T12:22:27;95568.41;;;28.76;37.99
25420;BME280;13354;48.174;11.566;2022-07-29T12:24:53;95569.38;;;28.58;38.50
25420;BME280;13354;48.174;11.566;2022-07-29T12:27:18;95567.56;;;28.53;38.83
25420;BME280;13354;48.174;11.566;2022-07-29T12:29:43;95566.84;;;28.61;38.97
25420;BME280;13354;48.174;11.566;2022-07-29T12:32:09;95561.41;;;28.61;38.69
25420;BME280;13354;48.174;11.566;2022-07-29T12:34:34;95564.78;;;28.45;39.73
25420;BME280;13354;48.174;11.566;2022-07-29T12:36:59;95565.31;;;28.69;39.23
25420;BME280;13354;48.174;11.566;2022-07-29T12:39:25;95568.50;;;28.71;39.18
25420;BME280;13354;48.174;11.566;2022-07-29T12:41:52;95569.06;;;28.59;39.91
25420;BME280;13354;48.174;11.566;2022-07-29T12:44:18;95554.69;;;28.68;39.34
25420;BME280;13354;48.174;11.566;2022-07-29T12:46:43;95560.44;;;28.88;38.62
25420;BME280;13354;48.174;11.566;2022-07-29T12:49:11;95565.72;;;28.85;38.57
25420;BME280;13354;48.174;11.566;2022-07-29T12:51:45;95554.59;;;28.73;37.88
25420;BME280;13354;48.174;11.566;2022-07-29T12:54:14;95562.31;;;28.57;38.74
25420;BME280;13354;48.174;11.566;2022-07-29T12:56:40;95561.41;;;28.39;39.23
25420;BME280;13354;48.174;11.566;2022-07-29T12:59:16;95561.50;;;28.20;39.88
25420;BME280;13354;48.174;11.566;2022-07-29T13:01:41;95561.31;;;28.16;39.30
25420;BME280;13354;48.174;11.566;2022-07-29T13:04:07;95561.59;;;27.92;39.44
25420;BME280;13354;48.174;11.566;2022-07-29T13:06:42;95556.00;;;27.98;38.94
25420;BME280;13354;48.174;11.566;2022-07-29T13:09:18;95555.66;;;27.77;39.19
25420;BME280;13354;48.174;11.566;2022-07-29T13:11:48;95556.03;;;27.56;39.43
25420;BME280;13354;48.174;11.566;2022-07-29T13:14:29;95558.47;;;27.44;39.88
25420;BME280;13354;48.174;11.566;2022-07-29T13:17:02;95556.44;;;27.50;39.09
25420;BME280;13354;48.174;11.566;2022-07-29T13:21:59;95563.00;;;27.35;40.48
25420;BME280;13354;48.174;11.566;2022-07-29T13:24:24;95558.34;;;27.35;40.44
25420;BME280;13354;48.174;11.566;2022-07-29T13:26:50;95565.31;;;27.14;41.02
25420;BME280;13354;48.174;11.566;2022-07-29T13:29:16;95560.66;;;27.28;40.91